Roseburg Regional, OR

4:04 PM PDT on October 24, 2014 (GMT -0700)
Roseburg Regional | Change Station
CLOSE
Current Station
Airport
Location: Roseburg,
Elevation: 525 ft
Nearby Weather Stations

Elev 525 ft 43.24 °N, 123.36 °W | Updated 11 minutes ago

Overcast
Overcast
60 °F
Feels Like 60 °F
N
0
Wind Variable Wind from North

Today
High -- | Low -- °F
--% Chance of Precip.
Yesterday
High -- | Low -- °F
Precip. -- in
7:38 AM 6:16 PM
New Moon, 1% visible
Pressure 29.79 in
Visibility 10.0 miles
Clouds Overcast 1200 ft
Dew Point 53 °F
Humidity 78%
Rainfall 0.17 in
Snow Depth Not available.
UV 1 out of 12
Pollen .30 out of 12
Air Quality Not available.
Flu Activity Sporadic
METAR KRBG 242253Z AUTO 00000KT 10SM OVC012 16/12 A2979 RMK AO2 SLP087 T01560117 $

More Conditions Fewer Conditions

Pressure 29.79 in
Visibility 10.0 miles
Clouds Overcast 1200 ft
Dew Point 53 °F
Humidity 78%
Rainfall 0.17 in
Snow Depth Not available.
UV 1 out of 12
Pollen .30 out of 12
Air Quality Not available.
Flu Activity Sporadic
METAR KRBG 242253Z AUTO 00000KT 10SM OVC012 16/12 A2979 RMK AO2 SLP087 T01560117 $

More Conditions Fewer Conditions

10-Day Weather Forecast

Almanac

Astronomy

Oct. 24, 2014 Rise Set
Actual Time 7:38 AM PDT 6:16 PM PDT
Civil Twilight 7:09 AM PDT 6:45 PM PDT
Nautical Twilight 6:35 AM PDT 7:18 PM PDT
Astronomical Twilight 6:02 AM PDT 7:51 PM PDT
Moon 8:23 AM PDT 6:58 PM PDT
Length of Visible Light 11h 36m
Length of Day
10h 37m
Tomorrow will be 2m 44s shorter.
New Moon, 1% of the Moon is Illuminated
Today
New Moon
Oct 30
First Quarter
Nov 6
Full
Nov 14
Last Quarter
Nov 22
New

Today's Extremes

State Highs State Lows

Community

WunderPhotos

Upload Photos

1,764,705 photos uploaded!

Nearby

Snow Depth

Station Depth Elevation
Holland Meadows 0 in 4900 ft
Diamond Lake 0 in 5315 ft
Annie Springs 0 in 6020 ft
Salt Creek Falls 0 in 4000 ft
Cascade Summit 0 in 4880 ft

Earthquake Activity

City Distance Mag. Time & Date
No recent earthquake activity has been reported nearby.
Minimum magnitude displayed is 2.5.

Coastal Water Temperatures

Place Temperature
No Stations Reporting

Nearby Weather Stations